Terminal Aerodrome Forecast
Issued by NWS Spokane, WA

Home | Current Version | Previous Version | Text Only | Print | Product List | Glossary On
Versions: 1 2 3 4 5 6 7 8 9 10 11 12 13 14 15 16 17 18 19 20 21 22 23
000
FTUS46 KOTX 180529
TAFGEG
TAF
KGEG 180529Z 1806/1906 24009KT P6SM SKC
     FM180800 30005KT P6SM SKC
     FM181500 34008KT P6SM SKC
     FM190300 27005KT P6SM FEW250=

USA.gov is the U.S. government's official web portal to all federal, state and local government web resources and services.